sensor_id;sensor_type;location;lat;lon;timestamp;P1;durP1;ratioP1;P2;durP2;ratioP2
51758;SDS011;66684;47.568;18.734;2023-02-17T00:01:21;113.95;;;63.65;;
51758;SDS011;66684;47.568;18.734;2023-02-17T00:03:50;102.75;;;56.40;;
51758;SDS011;66684;47.568;18.734;2023-02-17T00:06:18;108.87;;;62.88;;
51758;SDS011;66684;47.568;18.734;2023-02-17T00:08:46;121.78;;;69.70;;
51758;SDS011;66684;47.568;18.734;2023-02-17T00:11:13;98.43;;;54.28;;
51758;SDS011;66684;47.568;18.734;2023-02-17T00:13:39;148.93;;;98.72;;
51758;SDS011;66684;47.568;18.734;2023-02-17T00:16:15;123.75;;;79.05;;
51758;SDS011;66684;47.568;18.734;2023-02-17T00:18:43;92.07;;;52.92;;
51758;SDS011;66684;47.568;18.734;2023-02-17T00:21:13;147.65;;;92.47;;
51758;SDS011;66684;47.568;18.734;2023-02-17T00:23:44;123.50;;;73.18;;
51758;SDS011;66684;47.568;18.734;2023-02-17T00:26:11;149.82;;;94.90;;
51758;SDS011;66684;47.568;18.734;2023-02-17T00:28:38;110.20;;;66.55;;
51758;SDS011;66684;47.568;18.734;2023-02-17T00:31:08;92.43;;;52.17;;
51758;SDS011;66684;47.568;18.734;2023-02-17T00:33:36;97.00;;;53.65;;
51758;SDS011;66684;47.568;18.734;2023-02-17T00:36:03;94.68;;;53.03;;
51758;SDS011;66684;47.568;18.734;2023-02-17T00:38:30;107.95;;;63.25;;
51758;SDS011;66684;47.568;18.734;2023-02-17T00:40:56;119.75;;;69.72;;
51758;SDS011;66684;47.568;18.734;2023-02-17T00:43:22;93.95;;;53.50;;
51758;SDS011;66684;47.568;18.734;2023-02-17T00:45:48;90.03;;;49.10;;
51758;SDS011;66684;47.568;18.734;2023-02-17T00:48:14;90.22;;;52.72;;
51758;SDS011;66684;47.568;18.734;2023-02-17T00:50:40;114.70;;;67.82;;
51758;SDS011;66684;47.568;18.734;2023-02-17T00:53:05;104.70;;;61.37;;
51758;SDS011;66684;47.568;18.734;2023-02-17T00:55:31;86.20;;;49.28;;
51758;SDS011;66684;47.568;18.734;2023-02-17T00:57:57;91.63;;;53.35;;
51758;SDS011;66684;47.568;18.734;2023-02-17T01:00:23;87.95;;;51.42;;
51758;SDS011;66684;47.568;18.734;2023-02-17T01:02:50;86.40;;;51.47;;
51758;SDS011;66684;47.568;18.734;2023-02-17T01:05:16;85.18;;;50.15;;
51758;SDS011;66684;47.568;18.734;2023-02-17T01:07:42;79.43;;;49.15;;
51758;SDS011;66684;47.568;18.734;2023-02-17T01:10:08;85.55;;;51.15;;
51758;SDS011;66684;47.568;18.734;2023-02-17T01:12:34;83.97;;;49.47;;
51758;SDS011;66684;47.568;18.734;2023-02-17T01:15:00;85.25;;;50.35;;
51758;SDS011;66684;47.568;18.734;2023-02-17T01:17:26;82.37;;;50.88;;
51758;SDS011;66684;47.568;18.734;2023-02-17T01:19:52;82.65;;;49.70;;
51758;SDS011;66684;47.568;18.734;2023-02-17T01:22:18;82.15;;;49.85;;
51758;SDS011;66684;47.568;18.734;2023-02-17T01:24:44;80.50;;;47.00;;
51758;SDS011;66684;47.568;18.734;2023-02-17T01:27:10;79.32;;;47.35;;
51758;SDS011;66684;47.568;18.734;2023-02-17T01:29:36;78.07;;;45.30;;
51758;SDS011;66684;47.568;18.734;2023-02-17T01:32:02;75.28;;;46.22;;
51758;SDS011;66684;47.568;18.734;2023-02-17T01:34:28;72.40;;;45.53;;
51758;SDS011;66684;47.568;18.734;2023-02-17T01:36:53;77.68;;;46.13;;
51758;SDS011;66684;47.568;18.734;2023-02-17T01:39:19;70.72;;;44.75;;
51758;SDS011;66684;47.568;18.734;2023-02-17T01:41:45;79.22;;;47.10;;
51758;SDS011;66684;47.568;18.734;2023-02-17T01:46:49;76.12;;;46.35;;
51758;SDS011;66684;47.568;18.734;2023-02-17T01:51:56;69.72;;;43.33;;
51758;SDS011;66684;47.568;18.734;2023-02-17T01:54:40;73.28;;;44.70;;
51758;SDS011;66684;47.568;18.734;2023-02-17T01:57:10;75.90;;;44.80;;
51758;SDS011;66684;47.568;18.734;2023-02-17T01:59:39;73.45;;;44.40;;
51758;SDS011;66684;47.568;18.734;2023-02-17T02:02:06;76.22;;;44.25;;
51758;SDS011;66684;47.568;18.734;2023-02-17T02:04:33;79.55;;;47.10;;
51758;SDS011;66684;47.568;18.734;2023-02-17T02:07:02;74.18;;;44.38;;
51758;SDS011;66684;47.568;18.734;2023-02-17T02:09:36;76.55;;;45.67;;
51758;SDS011;66684;47.568;18.734;2023-02-17T02:12:19;81.85;;;48.28;;
51758;SDS011;66684;47.568;18.734;2023-02-17T02:14:52;76.85;;;46.53;;
51758;SDS011;66684;47.568;18.734;2023-02-17T02:19:57;74.07;;;44.03;;
51758;SDS011;66684;47.568;18.734;2023-02-17T02:28:02;67.07;;;41.42;;
51758;SDS011;66684;47.568;18.734;2023-02-17T02:33:18;69.40;;;41.60;;
51758;SDS011;66684;47.568;18.734;2023-02-17T02:39:31;65.10;;;39.60;;
51758;SDS011;66684;47.568;18.734;2023-02-17T02:44:30;69.62;;;39.95;;
51758;SDS011;66684;47.568;18.734;2023-02-17T02:49:30;76.90;;;42.50;;
51758;SDS011;66684;47.568;18.734;2023-02-17T02:55:05;64.03;;;37.92;;
51758;SDS011;66684;47.568;18.734;2023-02-17T02:57:51;60.55;;;35.95;;
51758;SDS011;66684;47.568;18.734;2023-02-17T03:00:48;61.95;;;37.22;;
51758;SDS011;66684;47.568;18.734;2023-02-17T03:06:11;57.30;;;32.97;;
51758;SDS011;66684;47.568;18.734;2023-02-17T03:08:53;58.75;;;33.28;;
51758;SDS011;66684;47.568;18.734;2023-02-17T03:11:24;67.15;;;35.92;;
51758;SDS011;66684;47.568;18.734;2023-02-17T03:14:06;72.80;;;38.83;;
51758;SDS011;66684;47.568;18.734;2023-02-17T03:16:38;74.90;;;42.60;;
51758;SDS011;66684;47.568;18.734;2023-02-17T03:19:05;72.47;;;41.65;;
51758;SDS011;66684;47.568;18.734;2023-02-17T03:24:15;76.60;;;43.45;;
51758;SDS011;66684;47.568;18.734;2023-02-17T03:26:42;66.45;;;39.63;;
51758;SDS011;66684;47.568;18.734;2023-02-17T03:29:07;70.97;;;40.83;;
51758;SDS011;66684;47.568;18.734;2023-02-17T03:31:33;62.88;;;36.10;;
51758;SDS011;66684;47.568;18.734;2023-02-17T03:34:00;53.50;;;31.33;;
51758;SDS011;66684;47.568;18.734;2023-02-17T03:36:26;57.65;;;31.87;;
51758;SDS011;66684;47.568;18.734;2023-02-17T03:38:52;60.95;;;35.75;;
51758;SDS011;66684;47.568;18.734;2023-02-17T03:41:18;61.42;;;34.05;;
51758;SDS011;66684;47.568;18.734;2023-02-17T03:43:43;54.97;;;31.20;;
51758;SDS011;66684;47.568;18.734;2023-02-17T03:46:10;57.28;;;32.38;;
51758;SDS011;66684;47.568;18.734;2023-02-17T03:48:37;66.55;;;36.40;;
51758;SDS011;66684;47.568;18.734;2023-02-17T03:51:14;70.78;;;39.53;;
51758;SDS011;66684;47.568;18.734;2023-02-17T03:53:42;56.83;;;32.45;;
51758;SDS011;66684;47.568;18.734;2023-02-17T03:56:09;59.33;;;34.42;;
51758;SDS011;66684;47.568;18.734;2023-02-17T03:58:36;62.67;;;35.33;;
51758;SDS011;66684;47.568;18.734;2023-02-17T04:01:03;64.20;;;39.13;;
51758;SDS011;66684;47.568;18.734;2023-02-17T04:03:29;71.40;;;41.05;;
51758;SDS011;66684;47.568;18.734;2023-02-17T04:05:55;76.05;;;42.95;;
51758;SDS011;66684;47.568;18.734;2023-02-17T04:08:22;62.47;;;36.72;;
51758;SDS011;66684;47.568;18.734;2023-02-17T04:10:56;61.20;;;33.72;;
51758;SDS011;66684;47.568;18.734;2023-02-17T04:13:23;64.50;;;37.78;;
51758;SDS011;66684;47.568;18.734;2023-02-17T04:15:51;64.05;;;37.78;;
51758;SDS011;66684;47.568;18.734;2023-02-17T04:18:17;71.12;;;40.88;;
51758;SDS011;66684;47.568;18.734;2023-02-17T04:20:46;77.75;;;43.28;;
51758;SDS011;66684;47.568;18.734;2023-02-17T04:23:12;77.05;;;43.72;;
51758;SDS011;66684;47.568;18.734;2023-02-17T04:25:41;75.55;;;42.88;;
51758;SDS011;66684;47.568;18.734;2023-02-17T04:28:07;73.62;;;42.58;;
51758;SDS011;66684;47.568;18.734;2023-02-17T04:30:35;73.53;;;42.28;;
51758;SDS011;66684;47.568;18.734;2023-02-17T04:33:02;69.12;;;39.80;;
51758;SDS011;66684;47.568;18.734;2023-02-17T04:35:28;75.00;;;42.20;;
51758;SDS011;66684;47.568;18.734;2023-02-17T04:37:54;68.90;;;41.42;;
51758;SDS011;66684;47.568;18.734;2023-02-17T04:40:20;71.85;;;39.72;;
51758;SDS011;66684;47.568;18.734;2023-02-17T04:42:46;65.25;;;38.40;;
51758;SDS011;66684;47.568;18.734;2023-02-17T04:45:14;66.93;;;38.67;;
51758;SDS011;66684;47.568;18.734;2023-02-17T04:47:40;64.85;;;37.28;;
51758;SDS011;66684;47.568;18.734;2023-02-17T04:50:06;65.32;;;36.67;;
51758;SDS011;66684;47.568;18.734;2023-02-17T04:52:33;60.83;;;35.53;;
51758;SDS011;66684;47.568;18.734;2023-02-17T04:55:00;61.20;;;35.90;;
51758;SDS011;66684;47.568;18.734;2023-02-17T04:57:26;66.62;;;37.67;;
51758;SDS011;66684;47.568;18.734;2023-02-17T04:59:51;72.47;;;38.13;;
51758;SDS011;66684;47.568;18.734;2023-02-17T05:02:17;69.28;;;39.80;;
51758;SDS011;66684;47.568;18.734;2023-02-17T05:04:43;67.85;;;38.72;;
51758;SDS011;66684;47.568;18.734;2023-02-17T05:07:09;65.62;;;37.53;;
51758;SDS011;66684;47.568;18.734;2023-02-17T05:09:35;60.38;;;34.70;;
51758;SDS011;66684;47.568;18.734;2023-02-17T05:12:01;64.22;;;36.95;;
51758;SDS011;66684;47.568;18.734;2023-02-17T05:14:27;65.60;;;36.95;;
51758;SDS011;66684;47.568;18.734;2023-02-17T05:16:54;72.97;;;40.28;;
51758;SDS011;66684;47.568;18.734;2023-02-17T05:19:20;80.70;;;45.22;;
51758;SDS011;66684;47.568;18.734;2023-02-17T05:21:46;78.43;;;46.63;;
51758;SDS011;66684;47.568;18.734;2023-02-17T05:24:11;89.87;;;48.10;;
51758;SDS011;66684;47.568;18.734;2023-02-17T05:26:37;77.78;;;43.67;;
51758;SDS011;66684;47.568;18.734;2023-02-17T05:29:03;75.20;;;44.03;;
51758;SDS011;66684;47.568;18.734;2023-02-17T05:31:29;77.15;;;44.22;;
51758;SDS011;66684;47.568;18.734;2023-02-17T05:33:55;85.90;;;53.53;;
51758;SDS011;66684;47.568;18.734;2023-02-17T05:36:21;81.80;;;49.13;;
51758;SDS011;66684;47.568;18.734;2023-02-17T05:38:47;77.93;;;43.80;;
51758;SDS011;66684;47.568;18.734;2023-02-17T05:41:14;67.15;;;37.13;;
51758;SDS011;66684;47.568;18.734;2023-02-17T05:43:41;70.07;;;37.92;;
51758;SDS011;66684;47.568;18.734;2023-02-17T05:46:07;65.60;;;37.70;;
51758;SDS011;66684;47.568;18.734;2023-02-17T05:48:33;75.15;;;38.90;;
51758;SDS011;66684;47.568;18.734;2023-02-17T05:50:59;79.18;;;42.90;;
51758;SDS011;66684;47.568;18.734;2023-02-17T05:53:25;72.95;;;44.35;;
51758;SDS011;66684;47.568;18.734;2023-02-17T05:55:51;70.90;;;41.30;;
51758;SDS011;66684;47.568;18.734;2023-02-17T05:58:17;67.40;;;37.65;;
51758;SDS011;66684;47.568;18.734;2023-02-17T06:00:43;81.37;;;47.65;;
51758;SDS011;66684;47.568;18.734;2023-02-17T06:03:10;85.25;;;48.87;;
51758;SDS011;66684;47.568;18.734;2023-02-17T06:05:37;74.60;;;42.95;;
51758;SDS011;66684;47.568;18.734;2023-02-17T06:08:03;83.55;;;48.03;;
51758;SDS011;66684;47.568;18.734;2023-02-17T06:10:29;82.30;;;46.83;;
51758;SDS011;66684;47.568;18.734;2023-02-17T06:12:55;79.43;;;47.05;;
51758;SDS011;66684;47.568;18.734;2023-02-17T06:15:20;72.65;;;40.53;;
51758;SDS011;66684;47.568;18.734;2023-02-17T06:17:46;68.00;;;41.42;;
51758;SDS011;66684;47.568;18.734;2023-02-17T06:20:13;68.68;;;41.03;;
51758;SDS011;66684;47.568;18.734;2023-02-17T06:22:39;69.07;;;40.40;;
51758;SDS011;66684;47.568;18.734;2023-02-17T06:25:06;70.57;;;42.10;;
51758;SDS011;66684;47.568;18.734;2023-02-17T06:27:32;63.42;;;38.42;;
51758;SDS011;66684;47.568;18.734;2023-02-17T06:29:58;64.75;;;37.70;;
51758;SDS011;66684;47.568;18.734;2023-02-17T06:32:24;61.92;;;36.03;;
51758;SDS011;66684;47.568;18.734;2023-02-17T06:34:50;59.97;;;33.67;;
51758;SDS011;66684;47.568;18.734;2023-02-17T06:37:16;75.75;;;44.10;;
51758;SDS011;66684;47.568;18.734;2023-02-17T06:39:42;74.37;;;41.50;;
51758;SDS011;66684;47.568;18.734;2023-02-17T06:42:08;63.67;;;36.70;;
51758;SDS011;66684;47.568;18.734;2023-02-17T06:44:34;62.55;;;35.80;;
51758;SDS011;66684;47.568;18.734;2023-02-17T06:47:00;64.45;;;37.67;;
51758;SDS011;66684;47.568;18.734;2023-02-17T06:49:25;76.68;;;44.42;;
51758;SDS011;66684;47.568;18.734;2023-02-17T06:51:51;83.43;;;46.92;;
51758;SDS011;66684;47.568;18.734;2023-02-17T06:54:17;85.53;;;46.85;;
51758;SDS011;66684;47.568;18.734;2023-02-17T06:56:43;93.68;;;53.80;;
51758;SDS011;66684;47.568;18.734;2023-02-17T06:59:09;101.03;;;55.85;;
51758;SDS011;66684;47.568;18.734;2023-02-17T07:01:35;91.90;;;50.80;;
51758;SDS011;66684;47.568;18.734;2023-02-17T07:04:01;99.97;;;57.13;;
51758;SDS011;66684;47.568;18.734;2023-02-17T07:06:27;94.43;;;55.05;;
51758;SDS011;66684;47.568;18.734;2023-02-17T07:08:53;119.82;;;68.15;;
51758;SDS011;66684;47.568;18.734;2023-02-17T07:11:19;92.72;;;50.55;;
51758;SDS011;66684;47.568;18.734;2023-02-17T07:13:45;78.22;;;44.38;;
51758;SDS011;66684;47.568;18.734;2023-02-17T07:16:12;81.05;;;43.55;;
51758;SDS011;66684;47.568;18.734;2023-02-17T07:18:39;70.28;;;41.78;;
51758;SDS011;66684;47.568;18.734;2023-02-17T07:21:06;75.43;;;43.10;;
51758;SDS011;66684;47.568;18.734;2023-02-17T07:23:33;74.07;;;42.97;;
51758;SDS011;66684;47.568;18.734;2023-02-17T07:26:00;77.68;;;41.78;;
51758;SDS011;66684;47.568;18.734;2023-02-17T07:28:27;96.22;;;51.50;;
51758;SDS011;66684;47.568;18.734;2023-02-17T07:30:53;101.65;;;54.95;;
51758;SDS011;66684;47.568;18.734;2023-02-17T07:33:19;92.68;;;50.40;;
51758;SDS011;66684;47.568;18.734;2023-02-17T07:35:45;117.78;;;65.97;;
51758;SDS011;66684;47.568;18.734;2023-02-17T07:38:11;159.52;;;85.05;;
51758;SDS011;66684;47.568;18.734;2023-02-17T07:40:37;153.05;;;85.10;;
51758;SDS011;66684;47.568;18.734;2023-02-17T07:43:03;160.40;;;88.37;;
51758;SDS011;66684;47.568;18.734;2023-02-17T07:45:29;158.12;;;87.90;;
51758;SDS011;66684;47.568;18.734;2023-02-17T07:47:55;162.55;;;91.00;;
51758;SDS011;66684;47.568;18.734;2023-02-17T07:50:21;154.93;;;86.32;;
51758;SDS011;66684;47.568;18.734;2023-02-17T07:52:47;144.50;;;81.68;;
51758;SDS011;66684;47.568;18.734;2023-02-17T07:55:15;139.60;;;79.32;;
51758;SDS011;66684;47.568;18.734;2023-02-17T07:57:41;126.25;;;72.43;;
51758;SDS011;66684;47.568;18.734;2023-02-17T08:00:07;114.00;;;65.20;;
51758;SDS011;66684;47.568;18.734;2023-02-17T08:02:33;144.23;;;79.25;;
51758;SDS011;66684;47.568;18.734;2023-02-17T08:04:59;117.45;;;67.60;;
51758;SDS011;66684;47.568;18.734;2023-02-17T08:07:25;83.78;;;45.45;;
51758;SDS011;66684;47.568;18.734;2023-02-17T08:09:51;83.85;;;46.00;;
51758;SDS011;66684;47.568;18.734;2023-02-17T08:12:35;87.53;;;46.03;;
51758;SDS011;66684;47.568;18.734;2023-02-17T08:15:33;74.70;;;42.88;;
51758;SDS011;66684;47.568;18.734;2023-02-17T08:17:59;72.72;;;43.17;;
51758;SDS011;66684;47.568;18.734;2023-02-17T08:20:26;72.78;;;40.30;;
51758;SDS011;66684;47.568;18.734;2023-02-17T08:22:52;71.07;;;41.00;;
51758;SDS011;66684;47.568;18.734;2023-02-17T08:25:18;72.20;;;40.60;;
51758;SDS011;66684;47.568;18.734;2023-02-17T08:27:44;77.50;;;43.67;;
51758;SDS011;66684;47.568;18.734;2023-02-17T08:30:10;71.10;;;41.47;;
51758;SDS011;66684;47.568;18.734;2023-02-17T08:32:36;76.00;;;42.55;;
51758;SDS011;66684;47.568;18.734;2023-02-17T08:35:02;74.25;;;42.45;;
51758;SDS011;66684;47.568;18.734;2023-02-17T08:37:28;73.03;;;41.75;;
51758;SDS011;66684;47.568;18.734;2023-02-17T08:39:56;71.25;;;41.50;;
51758;SDS011;66684;47.568;18.734;2023-02-17T08:42:26;73.93;;;43.92;;
51758;SDS011;66684;47.568;18.734;2023-02-17T08:44:52;71.97;;;41.42;;
51758;SDS011;66684;47.568;18.734;2023-02-17T08:47:19;75.12;;;42.25;;
51758;SDS011;66684;47.568;18.734;2023-02-17T08:49:44;72.62;;;42.20;;
51758;SDS011;66684;47.568;18.734;2023-02-17T08:52:10;70.10;;;38.28;;
51758;SDS011;66684;47.568;18.734;2023-02-17T08:54:36;65.40;;;37.28;;
51758;SDS011;66684;47.568;18.734;2023-02-17T08:57:02;69.65;;;40.78;;
51758;SDS011;66684;47.568;18.734;2023-02-17T08:59:28;69.53;;;39.63;;
51758;SDS011;66684;47.568;18.734;2023-02-17T09:01:54;71.07;;;41.17;;
51758;SDS011;66684;47.568;18.734;2023-02-17T09:04:21;67.43;;;37.13;;
51758;SDS011;66684;47.568;18.734;2023-02-17T09:06:48;71.70;;;39.58;;
51758;SDS011;66684;47.568;18.734;2023-02-17T09:09:17;69.75;;;38.72;;
51758;SDS011;66684;47.568;18.734;2023-02-17T09:11:47;69.37;;;39.30;;
51758;SDS011;66684;47.568;18.734;2023-02-17T09:14:13;65.95;;;38.33;;
51758;SDS011;66684;47.568;18.734;2023-02-17T09:16:39;70.55;;;38.00;;
51758;SDS011;66684;47.568;18.734;2023-02-17T09:19:05;67.95;;;39.40;;
51758;SDS011;66684;47.568;18.734;2023-02-17T09:21:31;69.12;;;38.35;;
51758;SDS011;66684;47.568;18.734;2023-02-17T09:23:57;70.55;;;39.25;;
51758;SDS011;66684;47.568;18.734;2023-02-17T09:26:23;63.80;;;37.50;;
51758;SDS011;66684;47.568;18.734;2023-02-17T09:28:49;68.32;;;39.22;;
51758;SDS011;66684;47.568;18.734;2023-02-17T09:31:20;68.68;;;37.67;;
51758;SDS011;66684;47.568;18.734;2023-02-17T09:33:48;68.07;;;38.55;;
51758;SDS011;66684;47.568;18.734;2023-02-17T09:36:16;63.63;;;35.83;;
51758;SDS011;66684;47.568;18.734;2023-02-17T09:38:44;63.63;;;35.20;;
51758;SDS011;66684;47.568;18.734;2023-02-17T09:43:46;62.88;;;35.63;;
51758;SDS011;66684;47.568;18.734;2023-02-17T09:46:14;61.22;;;35.13;;
51758;SDS011;66684;47.568;18.734;2023-02-17T09:48:46;60.08;;;35.15;;
51758;SDS011;66684;47.568;18.734;2023-02-17T09:51:20;62.08;;;35.03;;
51758;SDS011;66684;47.568;18.734;2023-02-17T09:54:14;63.90;;;35.60;;
51758;SDS011;66684;47.568;18.734;2023-02-17T09:56:49;56.88;;;32.67;;
51758;SDS011;66684;47.568;18.734;2023-02-17T09:59:25;58.75;;;34.95;;
51758;SDS011;66684;47.568;18.734;2023-02-17T10:01:57;70.20;;;35.63;;
51758;SDS011;66684;47.568;18.734;2023-02-17T10:07:07;64.35;;;34.58;;
51758;SDS011;66684;47.568;18.734;2023-02-17T10:09:57;56.47;;;33.28;;
51758;SDS011;66684;47.568;18.734;2023-02-17T10:12:31;59.22;;;34.20;;
51758;SDS011;66684;47.568;18.734;2023-02-17T10:22:45;61.08;;;35.25;;
51758;SDS011;66684;47.568;18.734;2023-02-17T10:25:16;64.18;;;33.70;;
51758;SDS011;66684;47.568;18.734;2023-02-17T10:27:45;71.85;;;38.63;;
51758;SDS011;66684;47.568;18.734;2023-02-17T10:38:57;71.25;;;39.92;;
51758;SDS011;66684;47.568;18.734;2023-02-17T10:41:35;83.93;;;45.72;;
51758;SDS011;66684;47.568;18.734;2023-02-17T10:44:17;74.25;;;40.05;;
51758;SDS011;66684;47.568;18.734;2023-02-17T10:46:45;73.93;;;41.08;;
51758;SDS011;66684;47.568;18.734;2023-02-17T10:49:26;60.67;;;36.42;;
51758;SDS011;66684;47.568;18.734;2023-02-17T10:52:08;59.90;;;32.92;;
51758;SDS011;66684;47.568;18.734;2023-02-17T10:54:56;53.63;;;31.00;;
51758;SDS011;66684;47.568;18.734;2023-02-17T10:57:27;60.85;;;31.48;;
51758;SDS011;66684;47.568;18.734;2023-02-17T10:59:59;59.60;;;32.75;;
51758;SDS011;66684;47.568;18.734;2023-02-17T11:02:45;55.85;;;31.90;;
51758;SDS011;66684;47.568;18.734;2023-02-17T11:05:31;52.67;;;31.42;;
51758;SDS011;66684;47.568;18.734;2023-02-17T11:08:03;56.20;;;32.72;;
51758;SDS011;66684;47.568;18.734;2023-02-17T11:10:56;60.15;;;32.92;;
51758;SDS011;66684;47.568;18.734;2023-02-17T11:13:39;54.03;;;31.73;;
51758;SDS011;66684;47.568;18.734;2023-02-17T11:16:55;50.67;;;30.60;;
51758;SDS011;66684;47.568;18.734;2023-02-17T11:19:00;63.33;;;33.53;;
51758;SDS011;66684;47.568;18.734;2023-02-17T11:21:28;52.65;;;30.15;;
51758;SDS011;66684;47.568;18.734;2023-02-17T11:23:55;56.30;;;30.80;;
51758;SDS011;66684;47.568;18.734;2023-02-17T11:26:25;56.58;;;31.00;;
51758;SDS011;66684;47.568;18.734;2023-02-17T11:28:53;52.62;;;29.92;;
51758;SDS011;66684;47.568;18.734;2023-02-17T11:31:27;50.75;;;30.02;;
51758;SDS011;66684;47.568;18.734;2023-02-17T11:33:55;54.67;;;31.08;;
51758;SDS011;66684;47.568;18.734;2023-02-17T11:36:22;50.60;;;30.08;;
51758;SDS011;66684;47.568;18.734;2023-02-17T11:38:50;64.15;;;32.38;;
51758;SDS011;66684;47.568;18.734;2023-02-17T11:41:16;65.45;;;34.40;;
51758;SDS011;66684;47.568;18.734;2023-02-17T11:47:08;60.15;;;33.38;;
51758;SDS011;66684;47.568;18.734;2023-02-17T11:49:43;56.17;;;32.53;;
51758;SDS011;66684;47.568;18.734;2023-02-17T11:52:34;59.15;;;31.92;;
51758;SDS011;66684;47.568;18.734;2023-02-17T11:58:33;54.05;;;29.75;;
51758;SDS011;66684;47.568;18.734;2023-02-17T12:04:15;56.03;;;32.45;;
51758;SDS011;66684;47.568;18.734;2023-02-17T12:12:21;64.60;;;35.33;;
51758;SDS011;66684;47.568;18.734;2023-02-17T12:23:12;52.28;;;31.23;;
51758;SDS011;66684;47.568;18.734;2023-02-17T12:44:38;60.15;;;34.47;;
51758;SDS011;66684;47.568;18.734;2023-02-17T12:47:13;64.53;;;32.05;;
51758;SDS011;66684;47.568;18.734;2023-02-17T12:49:47;65.97;;;36.22;;
51758;SDS011;66684;47.568;18.734;2023-02-17T12:55:05;54.28;;;32.95;;
51758;SDS011;66684;47.568;18.734;2023-02-17T12:57:55;55.23;;;32.37;;
51758;SDS011;66684;47.568;18.734;2023-02-17T13:00:35;57.42;;;31.30;;
51758;SDS011;66684;47.568;18.734;2023-02-17T13:03:05;53.92;;;31.27;;
51758;SDS011;66684;47.568;18.734;2023-02-17T13:05:55;62.30;;;35.03;;
51758;SDS011;66684;47.568;18.734;2023-02-17T13:08:41;60.78;;;36.28;;
51758;SDS011;66684;47.568;18.734;2023-02-17T13:11:28;63.20;;;37.42;;
51758;SDS011;66684;47.568;18.734;2023-02-17T13:13:56;56.40;;;35.50;;
51758;SDS011;66684;47.568;18.734;2023-02-17T13:16:22;67.15;;;38.65;;
51758;SDS011;66684;47.568;18.734;2023-02-17T13:18:49;72.50;;;40.92;;
51758;SDS011;66684;47.568;18.734;2023-02-17T13:23:57;67.28;;;40.90;;
51758;SDS011;66684;47.568;18.734;2023-02-17T13:26:31;69.55;;;40.20;;
51758;SDS011;66684;47.568;18.734;2023-02-17T13:31:56;61.08;;;37.90;;
51758;SDS011;66684;47.568;18.734;2023-02-17T13:36:59;64.37;;;37.35;;
51758;SDS011;66684;47.568;18.734;2023-02-17T13:39:29;60.45;;;36.78;;
51758;SDS011;66684;47.568;18.734;2023-02-17T13:41:57;63.87;;;37.97;;
51758;SDS011;66684;47.568;18.734;2023-02-17T13:44:27;68.68;;;39.17;;
51758;SDS011;66684;47.568;18.734;2023-02-17T13:46:58;58.83;;;35.38;;
51758;SDS011;66684;47.568;18.734;2023-02-17T13:49:31;65.28;;;37.83;;
51758;SDS011;66684;47.568;18.734;2023-02-17T13:52:33;61.47;;;36.00;;
51758;SDS011;66684;47.568;18.734;2023-02-17T13:54:54;64.60;;;37.47;;
51758;SDS011;66684;47.568;18.734;2023-02-17T13:57:26;70.35;;;41.58;;
51758;SDS011;66684;47.568;18.734;2023-02-17T14:03:00;68.25;;;41.13;;
51758;SDS011;66684;47.568;18.734;2023-02-17T14:05:43;68.00;;;40.67;;
51758;SDS011;66684;47.568;18.734;2023-02-17T14:08:16;86.32;;;48.97;;
51758;SDS011;66684;47.568;18.734;2023-02-17T14:10:42;73.10;;;42.15;;
51758;SDS011;66684;47.568;18.734;2023-02-17T14:13:09;77.57;;;45.08;;
51758;SDS011;66684;47.568;18.734;2023-02-17T14:15:36;60.10;;;37.38;;
51758;SDS011;66684;47.568;18.734;2023-02-17T14:18:13;68.47;;;40.33;;
51758;SDS011;66684;47.568;18.734;2023-02-17T14:20:40;72.30;;;41.28;;
51758;SDS011;66684;47.568;18.734;2023-02-17T14:23:10;60.17;;;36.28;;
51758;SDS011;66684;47.568;18.734;2023-02-17T14:25:39;73.35;;;42.62;;
51758;SDS011;66684;47.568;18.734;2023-02-17T14:28:21;60.67;;;36.25;;
51758;SDS011;66684;47.568;18.734;2023-02-17T14:30:51;64.25;;;37.08;;
51758;SDS011;66684;47.568;18.734;2023-02-17T14:33:22;64.40;;;37.40;;
51758;SDS011;66684;47.568;18.734;2023-02-17T14:38:25;58.72;;;36.13;;
51758;SDS011;66684;47.568;18.734;2023-02-17T14:40:51;67.50;;;38.95;;
51758;SDS011;66684;47.568;18.734;2023-02-17T14:43:20;63.47;;;39.17;;
51758;SDS011;66684;47.568;18.734;2023-02-17T14:45:47;72.30;;;44.13;;
51758;SDS011;66684;47.568;18.734;2023-02-17T14:48:13;84.20;;;49.20;;
51758;SDS011;66684;47.568;18.734;2023-02-17T14:50:40;71.87;;;44.83;;
51758;SDS011;66684;47.568;18.734;2023-02-17T14:53:23;74.78;;;45.92;;
51758;SDS011;66684;47.568;18.734;2023-02-17T14:56:06;66.97;;;42.70;;
51758;SDS011;66684;47.568;18.734;2023-02-17T14:58:35;71.50;;;43.58;;
51758;SDS011;66684;47.568;18.734;2023-02-17T15:01:01;75.25;;;45.08;;
51758;SDS011;66684;47.568;18.734;2023-02-17T15:03:27;74.87;;;44.00;;
51758;SDS011;66684;47.568;18.734;2023-02-17T15:05:53;74.82;;;44.28;;
51758;SDS011;66684;47.568;18.734;2023-02-17T15:08:21;72.85;;;43.83;;
51758;SDS011;66684;47.568;18.734;2023-02-17T15:10:54;75.60;;;44.63;;
51758;SDS011;66684;47.568;18.734;2023-02-17T15:13:21;71.20;;;44.28;;
51758;SDS011;66684;47.568;18.734;2023-02-17T15:15:47;75.68;;;43.03;;
51758;SDS011;66684;47.568;18.734;2023-02-17T15:18:15;76.20;;;43.00;;
51758;SDS011;66684;47.568;18.734;2023-02-17T15:20:43;72.15;;;42.75;;
51758;SDS011;66684;47.568;18.734;2023-02-17T15:23:12;72.93;;;42.08;;
51758;SDS011;66684;47.568;18.734;2023-02-17T15:25:40;75.07;;;43.63;;
51758;SDS011;66684;47.568;18.734;2023-02-17T15:28:09;76.55;;;48.05;;
51758;SDS011;66684;47.568;18.734;2023-02-17T15:30:37;77.00;;;46.83;;
51758;SDS011;66684;47.568;18.734;2023-02-17T15:33:07;79.85;;;49.17;;
51758;SDS011;66684;47.568;18.734;2023-02-17T15:35:35;76.57;;;44.45;;
51758;SDS011;66684;47.568;18.734;2023-02-17T15:38:03;73.75;;;43.42;;
51758;SDS011;66684;47.568;18.734;2023-02-17T15:40:29;73.53;;;46.05;;
51758;SDS011;66684;47.568;18.734;2023-02-17T15:42:56;69.62;;;42.95;;
51758;SDS011;66684;47.568;18.734;2023-02-17T15:45:27;70.03;;;42.28;;
51758;SDS011;66684;47.568;18.734;2023-02-17T15:47:59;73.43;;;41.35;;
51758;SDS011;66684;47.568;18.734;2023-02-17T15:50:28;71.65;;;42.10;;
51758;SDS011;66684;47.568;18.734;2023-02-17T15:52:55;66.97;;;41.03;;
51758;SDS011;66684;47.568;18.734;2023-02-17T15:55:21;68.95;;;42.85;;
51758;SDS011;66684;47.568;18.734;2023-02-17T15:57:49;76.28;;;45.83;;
51758;SDS011;66684;47.568;18.734;2023-02-17T16:02:47;85.57;;;50.42;;
51758;SDS011;66684;47.568;18.734;2023-02-17T16:05:14;90.60;;;52.83;;
51758;SDS011;66684;47.568;18.734;2023-02-17T16:07:42;92.88;;;54.60;;
51758;SDS011;66684;47.568;18.734;2023-02-17T16:10:09;89.75;;;52.47;;
51758;SDS011;66684;47.568;18.734;2023-02-17T16:12:37;91.15;;;52.38;;
51758;SDS011;66684;47.568;18.734;2023-02-17T16:15:04;88.57;;;51.55;;
51758;SDS011;66684;47.568;18.734;2023-02-17T16:17:34;87.37;;;50.38;;